sensor_id;sensor_type;location;lat;lon;timestamp;P1;durP1;ratioP1;P2;durP2;ratioP2
62151;SDS011;48139;47.474;19.034;2023-04-28T03:44:12;9.25;;;4.60;;
62151;SDS011;48139;47.474;19.034;2023-04-28T03:47:16;7.55;;;4.80;;
62151;SDS011;48139;47.474;19.034;2023-04-28T03:50:19;6.60;;;4.83;;
62151;SDS011;48139;47.474;19.034;2023-04-28T03:53:22;6.50;;;3.40;;
62151;SDS011;48139;47.474;19.034;2023-04-28T03:56:24;8.25;;;4.15;;
62151;SDS011;48139;47.474;19.034;2023-04-28T03:59:28;7.20;;;4.90;;
62151;SDS011;48139;47.474;19.034;2023-04-28T04:02:30;9.23;;;4.18;;
62151;SDS011;48139;47.474;19.034;2023-04-28T04:05:34;6.40;;;4.07;;
62151;SDS011;48139;47.474;19.034;2023-04-28T04:08:36;10.32;;;5.43;;
62151;SDS011;48139;47.474;19.034;2023-04-28T04:11:39;8.77;;;3.67;;
62151;SDS011;48139;47.474;19.034;2023-04-28T04:14:41;7.12;;;3.15;;
62151;SDS011;48139;47.474;19.034;2023-04-28T04:17:45;7.07;;;4.00;;
62151;SDS011;48139;47.474;19.034;2023-04-28T04:20:48;6.53;;;3.03;;
62151;SDS011;48139;47.474;19.034;2023-04-28T04:23:51;11.12;;;6.25;;
62151;SDS011;48139;47.474;19.034;2023-04-28T04:26:54;7.90;;;3.85;;
62151;SDS011;48139;47.474;19.034;2023-04-28T04:29:57;10.27;;;4.73;;
62151;SDS011;48139;47.474;19.034;2023-04-28T04:36:03;6.45;;;4.15;;
62151;SDS011;48139;47.474;19.034;2023-04-28T04:39:07;7.78;;;4.82;;
62151;SDS011;48139;47.474;19.034;2023-04-28T04:42:10;9.35;;;4.78;;
62151;SDS011;48139;47.474;19.034;2023-04-28T04:45:27;8.45;;;4.97;;
62151;SDS011;48139;47.474;19.034;2023-04-28T04:48:30;6.75;;;4.75;;
62151;SDS011;48139;47.474;19.034;2023-04-28T04:51:33;7.97;;;4.15;;
62151;SDS011;48139;47.474;19.034;2023-04-28T04:54:35;7.30;;;4.93;;
62151;SDS011;48139;47.474;19.034;2023-04-28T04:57:38;10.13;;;5.10;;
62151;SDS011;48139;47.474;19.034;2023-04-28T05:00:41;10.80;;;5.18;;
62151;SDS011;48139;47.474;19.034;2023-04-28T05:03:44;7.50;;;4.30;;
62151;SDS011;48139;47.474;19.034;2023-04-28T05:06:47;9.07;;;4.68;;
62151;SDS011;48139;47.474;19.034;2023-04-28T05:12:55;10.55;;;5.60;;
62151;SDS011;48139;47.474;19.034;2023-04-28T05:15:57;10.82;;;5.37;;
62151;SDS011;48139;47.474;19.034;2023-04-28T05:19:01;10.02;;;4.53;;
62151;SDS011;48139;47.474;19.034;2023-04-28T05:22:04;8.35;;;5.57;;
62151;SDS011;48139;47.474;19.034;2023-04-28T05:25:09;9.35;;;5.15;;
62151;SDS011;48139;47.474;19.034;2023-04-28T05:28:12;9.02;;;5.68;;
62151;SDS011;48139;47.474;19.034;2023-04-28T05:31:15;11.43;;;5.75;;
62151;SDS011;48139;47.474;19.034;2023-04-28T05:34:18;8.13;;;4.82;;
62151;SDS011;48139;47.474;19.034;2023-04-28T05:37:21;13.18;;;4.70;;
62151;SDS011;48139;47.474;19.034;2023-04-28T05:40:25;9.77;;;4.90;;
62151;SDS011;48139;47.474;19.034;2023-04-28T05:43:29;8.48;;;5.20;;
62151;SDS011;48139;47.474;19.034;2023-04-28T05:46:32;7.95;;;5.28;;
62151;SDS011;48139;47.474;19.034;2023-04-28T05:49:35;10.95;;;5.82;;
62151;SDS011;48139;47.474;19.034;2023-04-28T05:52:39;10.10;;;5.80;;
62151;SDS011;48139;47.474;19.034;2023-04-28T05:55:42;8.90;;;5.85;;
62151;SDS011;48139;47.474;19.034;2023-04-28T05:58:45;9.67;;;5.13;;
62151;SDS011;48139;47.474;19.034;2023-04-28T06:01:49;10.90;;;5.45;;
62151;SDS011;48139;47.474;19.034;2023-04-28T06:04:52;12.50;;;6.22;;
62151;SDS011;48139;47.474;19.034;2023-04-28T06:07:55;9.27;;;4.53;;
62151;SDS011;48139;47.474;19.034;2023-04-28T06:10:58;6.50;;;4.37;;
62151;SDS011;48139;47.474;19.034;2023-04-28T06:14:00;9.40;;;5.25;;
62151;SDS011;48139;47.474;19.034;2023-04-28T06:17:03;8.25;;;5.43;;
62151;SDS011;48139;47.474;19.034;2023-04-28T06:20:08;8.25;;;4.95;;
62151;SDS011;48139;47.474;19.034;2023-04-28T06:23:12;10.80;;;5.30;;
62151;SDS011;48139;47.474;19.034;2023-04-28T06:26:16;11.12;;;6.50;;
62151;SDS011;48139;47.474;19.034;2023-04-28T06:29:20;8.88;;;5.28;;
62151;SDS011;48139;47.474;19.034;2023-04-28T06:32:25;7.68;;;4.95;;
62151;SDS011;48139;47.474;19.034;2023-04-28T06:35:28;9.60;;;6.33;;
62151;SDS011;48139;47.474;19.034;2023-04-28T06:38:32;10.50;;;6.15;;
62151;SDS011;48139;47.474;19.034;2023-04-28T06:41:35;13.43;;;6.00;;
62151;SDS011;48139;47.474;19.034;2023-04-28T06:44:38;12.93;;;6.20;;
62151;SDS011;48139;47.474;19.034;2023-04-28T06:47:41;10.23;;;5.93;;
62151;SDS011;48139;47.474;19.034;2023-04-28T06:50:44;11.75;;;7.37;;
62151;SDS011;48139;47.474;19.034;2023-04-28T06:53:47;9.95;;;6.25;;
62151;SDS011;48139;47.474;19.034;2023-04-28T06:56:52;13.25;;;6.40;;
62151;SDS011;48139;47.474;19.034;2023-04-28T06:59:59;13.48;;;7.93;;
62151;SDS011;48139;47.474;19.034;2023-04-28T07:03:01;11.20;;;6.65;;
62151;SDS011;48139;47.474;19.034;2023-04-28T07:06:04;13.68;;;8.55;;
62151;SDS011;48139;47.474;19.034;2023-04-28T07:09:07;12.40;;;8.00;;
62151;SDS011;48139;47.474;19.034;2023-04-28T07:12:10;11.55;;;6.95;;
62151;SDS011;48139;47.474;19.034;2023-04-28T07:15:15;10.70;;;5.87;;
62151;SDS011;48139;47.474;19.034;2023-04-28T07:18:18;12.52;;;7.45;;
62151;SDS011;48139;47.474;19.034;2023-04-28T07:21:21;12.43;;;8.13;;
62151;SDS011;48139;47.474;19.034;2023-04-28T07:24:24;12.43;;;8.30;;
62151;SDS011;48139;47.474;19.034;2023-04-28T07:27:28;12.23;;;6.47;;
62151;SDS011;48139;47.474;19.034;2023-04-28T07:30:31;12.13;;;7.75;;
62151;SDS011;48139;47.474;19.034;2023-04-28T07:33:33;14.38;;;7.22;;
62151;SDS011;48139;47.474;19.034;2023-04-28T07:36:36;11.70;;;6.00;;
62151;SDS011;48139;47.474;19.034;2023-04-28T07:39:39;12.03;;;6.03;;
62151;SDS011;48139;47.474;19.034;2023-04-28T07:42:43;15.43;;;8.05;;
62151;SDS011;48139;47.474;19.034;2023-04-28T07:45:46;9.35;;;6.03;;
62151;SDS011;48139;47.474;19.034;2023-04-28T07:48:50;9.48;;;5.57;;
62151;SDS011;48139;47.474;19.034;2023-04-28T07:51:52;13.52;;;6.43;;
62151;SDS011;48139;47.474;19.034;2023-04-28T07:54:57;11.50;;;6.68;;
62151;SDS011;48139;47.474;19.034;2023-04-28T07:58:00;12.27;;;6.60;;
62151;SDS011;48139;47.474;19.034;2023-04-28T08:01:03;12.10;;;7.22;;
62151;SDS011;48139;47.474;19.034;2023-04-28T08:04:06;12.88;;;6.53;;
62151;SDS011;48139;47.474;19.034;2023-04-28T08:07:09;14.60;;;6.43;;
62151;SDS011;48139;47.474;19.034;2023-04-28T08:10:12;15.00;;;6.60;;
62151;SDS011;48139;47.474;19.034;2023-04-28T08:13:14;13.53;;;6.37;;
62151;SDS011;48139;47.474;19.034;2023-04-28T08:16:18;11.98;;;5.78;;
62151;SDS011;48139;47.474;19.034;2023-04-28T08:19:21;11.68;;;7.90;;
62151;SDS011;48139;47.474;19.034;2023-04-28T08:22:24;10.27;;;5.57;;
62151;SDS011;48139;47.474;19.034;2023-04-28T08:25:27;10.10;;;5.70;;
62151;SDS011;48139;47.474;19.034;2023-04-28T08:28:30;8.50;;;4.62;;
62151;SDS011;48139;47.474;19.034;2023-04-28T08:31:34;8.05;;;5.75;;
62151;SDS011;48139;47.474;19.034;2023-04-28T08:34:36;9.73;;;5.03;;
62151;SDS011;48139;47.474;19.034;2023-04-28T08:37:39;8.65;;;4.03;;
62151;SDS011;48139;47.474;19.034;2023-04-28T08:40:42;8.93;;;3.78;;
62151;SDS011;48139;47.474;19.034;2023-04-28T08:43:45;6.40;;;3.72;;
62151;SDS011;48139;47.474;19.034;2023-04-28T08:46:48;10.02;;;4.82;;
62151;SDS011;48139;47.474;19.034;2023-04-28T08:49:51;8.43;;;4.55;;
62151;SDS011;48139;47.474;19.034;2023-04-28T08:52:57;9.65;;;4.12;;
62151;SDS011;48139;47.474;19.034;2023-04-28T08:56:01;11.93;;;3.62;;
62151;SDS011;48139;47.474;19.034;2023-04-28T08:59:08;5.68;;;3.10;;
62151;SDS011;48139;47.474;19.034;2023-04-28T09:02:10;6.90;;;3.10;;
62151;SDS011;48139;47.474;19.034;2023-04-28T09:05:13;7.57;;;3.55;;
62151;SDS011;48139;47.474;19.034;2023-04-28T09:08:16;9.32;;;4.32;;
62151;SDS011;48139;47.474;19.034;2023-04-28T09:11:20;9.35;;;4.22;;
62151;SDS011;48139;47.474;19.034;2023-04-28T09:14:22;8.40;;;3.22;;
62151;SDS011;48139;47.474;19.034;2023-04-28T09:17:25;10.00;;;4.07;;
62151;SDS011;48139;47.474;19.034;2023-04-28T09:20:29;8.63;;;3.80;;
62151;SDS011;48139;47.474;19.034;2023-04-28T09:23:33;10.50;;;3.65;;
62151;SDS011;48139;47.474;19.034;2023-04-28T09:26:48;12.90;;;5.20;;
62151;SDS011;48139;47.474;19.034;2023-04-28T09:29:56;8.77;;;3.90;;
62151;SDS011;48139;47.474;19.034;2023-04-28T09:33:05;9.85;;;4.00;;
62151;SDS011;48139;47.474;19.034;2023-04-28T09:36:10;5.70;;;2.83;;
62151;SDS011;48139;47.474;19.034;2023-04-28T09:39:13;9.30;;;3.55;;
62151;SDS011;48139;47.474;19.034;2023-04-28T09:45:44;9.63;;;3.50;;
62151;SDS011;48139;47.474;19.034;2023-04-28T09:48:47;7.70;;;3.12;;
62151;SDS011;48139;47.474;19.034;2023-04-28T09:51:49;5.83;;;2.97;;
62151;SDS011;48139;47.474;19.034;2023-04-28T09:54:53;8.43;;;3.10;;
62151;SDS011;48139;47.474;19.034;2023-04-28T09:57:57;6.12;;;2.95;;
62151;SDS011;48139;47.474;19.034;2023-04-28T10:01:06;8.82;;;2.90;;
62151;SDS011;48139;47.474;19.034;2023-04-28T10:04:13;6.85;;;3.47;;
62151;SDS011;48139;47.474;19.034;2023-04-28T10:07:19;8.07;;;3.75;;
62151;SDS011;48139;47.474;19.034;2023-04-28T10:10:22;6.12;;;3.30;;
62151;SDS011;48139;47.474;19.034;2023-04-28T10:13:26;7.55;;;2.97;;
62151;SDS011;48139;47.474;19.034;2023-04-28T10:16:29;8.48;;;3.53;;
62151;SDS011;48139;47.474;19.034;2023-04-28T10:19:34;8.98;;;4.05;;
62151;SDS011;48139;47.474;19.034;2023-04-28T10:26:10;8.85;;;3.03;;
62151;SDS011;48139;47.474;19.034;2023-04-28T10:29:15;10.20;;;3.30;;
62151;SDS011;48139;47.474;19.034;2023-04-28T10:32:24;11.23;;;3.97;;
62151;SDS011;48139;47.474;19.034;2023-04-28T10:38:34;5.37;;;2.87;;
62151;SDS011;48139;47.474;19.034;2023-04-28T10:41:38;5.82;;;3.08;;
62151;SDS011;48139;47.474;19.034;2023-04-28T10:44:40;5.43;;;2.80;;
62151;SDS011;48139;47.474;19.034;2023-04-28T10:48:18;5.18;;;2.80;;
62151;SDS011;48139;47.474;19.034;2023-04-28T10:54:18;6.45;;;3.05;;
62151;SDS011;48139;47.474;19.034;2023-04-28T10:57:21;6.15;;;3.28;;
62151;SDS011;48139;47.474;19.034;2023-04-28T11:00:27;5.07;;;2.80;;
62151;SDS011;48139;47.474;19.034;2023-04-28T11:03:47;8.13;;;3.17;;
62151;SDS011;48139;47.474;19.034;2023-04-28T11:07:09;6.90;;;3.22;;
62151;SDS011;48139;47.474;19.034;2023-04-28T11:10:14;7.53;;;2.62;;
62151;SDS011;48139;47.474;19.034;2023-04-28T11:16:29;5.78;;;3.42;;
62151;SDS011;48139;47.474;19.034;2023-04-28T11:22:43;5.22;;;2.58;;
62151;SDS011;48139;47.474;19.034;2023-04-28T11:25:53;7.62;;;2.87;;
62151;SDS011;48139;47.474;19.034;2023-04-28T11:28:56;4.72;;;2.40;;
62151;SDS011;48139;47.474;19.034;2023-04-28T11:32:00;8.15;;;3.05;;
62151;SDS011;48139;47.474;19.034;2023-04-28T11:35:07;6.65;;;2.80;;
62151;SDS011;48139;47.474;19.034;2023-04-28T11:38:11;8.13;;;3.53;;
62151;SDS011;48139;47.474;19.034;2023-04-28T11:41:13;4.60;;;2.50;;
62151;SDS011;48139;47.474;19.034;2023-04-28T11:44:17;5.28;;;2.60;;
62151;SDS011;48139;47.474;19.034;2023-04-28T11:47:33;5.60;;;3.35;;
62151;SDS011;48139;47.474;19.034;2023-04-28T11:50:36;6.30;;;2.58;;
62151;SDS011;48139;47.474;19.034;2023-04-28T11:56:45;7.50;;;2.55;;
62151;SDS011;48139;47.474;19.034;2023-04-28T11:59:49;7.60;;;3.05;;
62151;SDS011;48139;47.474;19.034;2023-04-28T12:02:52;3.12;;;2.00;;
62151;SDS011;48139;47.474;19.034;2023-04-28T12:05:55;6.00;;;3.17;;
62151;SDS011;48139;47.474;19.034;2023-04-28T12:08:59;5.65;;;2.78;;
62151;SDS011;48139;47.474;19.034;2023-04-28T12:12:07;6.40;;;2.55;;
62151;SDS011;48139;47.474;19.034;2023-04-28T12:15:11;4.80;;;2.40;;
62151;SDS011;48139;47.474;19.034;2023-04-28T12:18:14;5.55;;;2.83;;
62151;SDS011;48139;47.474;19.034;2023-04-28T12:21:20;5.97;;;3.05;;
62151;SDS011;48139;47.474;19.034;2023-04-28T12:24:23;3.92;;;2.12;;
62151;SDS011;48139;47.474;19.034;2023-04-28T12:27:27;7.55;;;2.85;;
62151;SDS011;48139;47.474;19.034;2023-04-28T12:30:31;8.88;;;2.83;;
62151;SDS011;48139;47.474;19.034;2023-04-28T12:33:35;9.27;;;2.75;;
62151;SDS011;48139;47.474;19.034;2023-04-28T12:36:41;8.27;;;3.92;;
62151;SDS011;48139;47.474;19.034;2023-04-28T12:39:47;11.63;;;4.05;;
62151;SDS011;48139;47.474;19.034;2023-04-28T12:42:50;8.65;;;3.95;;
62151;SDS011;48139;47.474;19.034;2023-04-28T12:45:52;8.73;;;3.47;;
62151;SDS011;48139;47.474;19.034;2023-04-28T12:48:56;7.55;;;2.92;;
62151;SDS011;48139;47.474;19.034;2023-04-28T12:51:59;6.87;;;2.90;;
62151;SDS011;48139;47.474;19.034;2023-04-28T12:55:02;6.70;;;2.50;;
62151;SDS011;48139;47.474;19.034;2023-04-28T13:01:08;5.15;;;2.35;;
62151;SDS011;48139;47.474;19.034;2023-04-28T13:04:10;6.27;;;2.67;;
62151;SDS011;48139;47.474;19.034;2023-04-28T13:07:14;6.90;;;3.05;;
62151;SDS011;48139;47.474;19.034;2023-04-28T13:10:17;5.20;;;2.37;;
62151;SDS011;48139;47.474;19.034;2023-04-28T13:13:25;4.32;;;2.47;;
62151;SDS011;48139;47.474;19.034;2023-04-28T13:16:28;6.10;;;2.53;;
62151;SDS011;48139;47.474;19.034;2023-04-28T13:19:31;7.85;;;2.78;;
62151;SDS011;48139;47.474;19.034;2023-04-28T13:22:35;4.85;;;2.50;;
62151;SDS011;48139;47.474;19.034;2023-04-28T13:25:38;6.00;;;2.75;;
62151;SDS011;48139;47.474;19.034;2023-04-28T13:28:41;4.87;;;2.60;;
62151;SDS011;48139;47.474;19.034;2023-04-28T13:31:43;8.07;;;3.55;;
62151;SDS011;48139;47.474;19.034;2023-04-28T13:34:46;4.55;;;2.17;;
62151;SDS011;48139;47.474;19.034;2023-04-28T13:40:56;7.45;;;2.40;;
62151;SDS011;48139;47.474;19.034;2023-04-28T13:43:59;7.62;;;2.78;;
62151;SDS011;48139;47.474;19.034;2023-04-28T13:47:02;6.55;;;2.30;;
62151;SDS011;48139;47.474;19.034;2023-04-28T13:50:06;8.40;;;3.03;;
62151;SDS011;48139;47.474;19.034;2023-04-28T13:53:09;7.55;;;2.83;;
62151;SDS011;48139;47.474;19.034;2023-04-28T13:59:14;6.50;;;3.55;;
62151;SDS011;48139;47.474;19.034;2023-04-28T14:02:17;7.47;;;3.00;;
62151;SDS011;48139;47.474;19.034;2023-04-28T14:05:20;4.65;;;3.03;;
62151;SDS011;48139;47.474;19.034;2023-04-28T14:11:28;4.15;;;2.45;;
62151;SDS011;48139;47.474;19.034;2023-04-28T14:14:32;11.87;;;3.13;;
62151;SDS011;48139;47.474;19.034;2023-04-28T14:20:37;7.07;;;2.53;;
62151;SDS011;48139;47.474;19.034;2023-04-28T14:23:43;5.85;;;2.58;;
62151;SDS011;48139;47.474;19.034;2023-04-28T14:26:47;6.93;;;2.62;;
62151;SDS011;48139;47.474;19.034;2023-04-28T14:29:50;6.97;;;2.42;;
62151;SDS011;48139;47.474;19.034;2023-04-28T14:32:53;4.78;;;2.62;;
62151;SDS011;48139;47.474;19.034;2023-04-28T14:35:56;8.20;;;3.60;;
62151;SDS011;48139;47.474;19.034;2023-04-28T14:38:58;5.30;;;3.10;;
62151;SDS011;48139;47.474;19.034;2023-04-28T14:45:05;6.18;;;2.58;;
62151;SDS011;48139;47.474;19.034;2023-04-28T14:48:10;6.85;;;2.95;;
62151;SDS011;48139;47.474;19.034;2023-04-28T14:51:14;4.57;;;2.35;;
62151;SDS011;48139;47.474;19.034;2023-04-28T14:54:17;5.72;;;2.22;;
62151;SDS011;48139;47.474;19.034;2023-04-28T14:57:19;4.33;;;2.50;;
62151;SDS011;48139;47.474;19.034;2023-04-28T15:00:23;6.78;;;3.45;;
62151;SDS011;48139;47.474;19.034;2023-04-28T15:03:25;5.15;;;2.30;;
62151;SDS011;48139;47.474;19.034;2023-04-28T15:06:28;4.62;;;2.50;;
62151;SDS011;48139;47.474;19.034;2023-04-28T15:09:33;6.18;;;3.33;;
62151;SDS011;48139;47.474;19.034;2023-04-28T15:15:38;6.53;;;2.58;;
62151;SDS011;48139;47.474;19.034;2023-04-28T15:18:42;9.05;;;2.65;;
62151;SDS011;48139;47.474;19.034;2023-04-28T15:21:45;6.87;;;3.03;;
62151;SDS011;48139;47.474;19.034;2023-04-28T15:24:48;5.37;;;2.70;;
62151;SDS011;48139;47.474;19.034;2023-04-28T15:27:52;5.20;;;2.35;;
62151;SDS011;48139;47.474;19.034;2023-04-28T15:30:54;7.55;;;2.72;;
